DAL209 EGPH-KJFK
Flight info
| Callsign | DAL209 |
|---|---|
| Flight time | N/A |
| Altitude | 12000 |
| Route | GOSAM P600 FENIK NORBO MAC MOLAK RILED TOBOR/M080F380 NATD IBERG/N0456F380 N364A TUSKY PLYMM PARCH4 |
| Aircraft | A321/M-SDE3FGHIRWY/LB1 |
Departure
| Time | N/A |
|---|---|
| Airport | Edinburgh Airport (EGPH) |
Arrival
| Time | 2026-04-30 17:51 |
|---|---|
| Airport | John F. Kennedy International Airport (KJFK) |
| Time | Latitude | Longitude | Altitude | Speed | Heading |
|---|---|---|---|---|---|
| 2026-04-30 17:39 | 40.68605 | -73.18116 | 7226 ft | 260 kts | 269° |
| 2026-04-30 17:41 | 40.70566 | -73.36387 | 4081 ft | 240 kts | 297° |
| 2026-04-30 17:42 | 40.72033 | -73.40159 | 3720 ft | 224 kts | 298° |
| 2026-04-30 17:42 | 40.74130 | -73.45624 | 3654 ft | 223 kts | 298° |
| 2026-04-30 17:43 | 40.75529 | -73.49287 | 3652 ft | 222 kts | 298° |
| 2026-04-30 17:44 | 40.77530 | -73.54569 | 3013 ft | 200 kts | 298° |
| 2026-04-30 17:44 | 40.79198 | -73.59038 | 2627 ft | 156 kts | 298° |
| 2026-04-30 17:46 | 40.77751 | -73.64347 | 2651 ft | 137 kts | 220° |
| 2026-04-30 17:47 | 40.74739 | -73.67189 | 2397 ft | 130 kts | 220° |
| 2026-04-30 17:48 | 40.71750 | -73.69834 | 1665 ft | 128 kts | 214° |
| 2026-04-30 17:48 | 40.69459 | -73.71628 | 1156 ft | 126 kts | 213° |
| 2026-04-30 17:49 | 40.66521 | -73.73922 | 502 ft | 123 kts | 212° |
| 2026-04-30 17:50 | 40.63695 | -73.76136 | 17 ft | 92 kts | 213° |
| 2026-04-30 17:51 | 40.63050 | -73.76644 | 15 ft | 27 kts | 211° |
| 2026-04-30 17:52 | 40.62665 | -73.76949 | 14 ft | 18 kts | 213° |
| 2026-04-30 17:53 | 40.62580 | -73.77127 | 14 ft | 0 kts | 273° |
| 2026-04-30 17:55 | 40.62775 | -73.77221 | 14 ft | 18 kts | 29° |
| 2026-04-30 17:56 | 40.62878 | -73.77141 | 14 ft | 4 kts | 31° |
| 2026-04-30 17:57 | 40.62991 | -73.77110 | 15 ft | 8 kts | 306° |
| 2026-04-30 17:58 | 40.63120 | -73.77389 | 15 ft | 14 kts | 301° |
| 2026-04-30 17:59 | 40.63211 | -73.77588 | 15 ft | 0 kts | 301° |
| 2026-04-30 18:00 | 40.63211 | -73.77589 | 15 ft | 0 kts | 301° |
| 2026-04-30 18:01 | 40.63331 | -73.77855 | 15 ft | 19 kts | 301° |
| 2026-04-30 18:02 | 40.63520 | -73.78283 | 15 ft | 8 kts | 300° |
| 2026-04-30 18:02 | 40.63570 | -73.78366 | 15 ft | 4 kts | 339° |
| 2026-04-30 18:03 | 40.63720 | -73.78359 | 16 ft | 9 kts | 355° |
| 2026-04-30 18:04 | 40.63793 | -73.78176 | 16 ft | 0 kts | 83° |